Hutag, Mongolia
Current Conditions -  °F | °C
As of 2:30 PM on Wednesday 26 Nov 2014 (Local Time) from UIII Reporting Station
Clear Clear  
Wind Chill: -2°   Ceiling: Unl
Heat Index:   Visibility: 6mi
Dew Point: -6°   Wind: 7mph
Humidity: 52%   Direction: 140°SE
Pressure: 29.88"   Gusts: NA
Location:  49.39°N, 102.7°E
Report Text: UIII 260630Z 14003MPS 110V170 CAVOK M13/M21 Q1012 NOSIG RMKQFE714/0953 30810360
Loading
Personal Weather Stations






























Interactive Weather Map New forecast layout! Learn more

10-Day Weather Forecast

Advertisements
Track Severe Weather on mobile